Time;durP1;ratioP1;P1;durP2;ratioP2;P2;SDS_P1;SDS_P2;PMS_P1;PMS_P2;Temp;Humidity;BMP_temperature;BMP_pressure;BME280_temperature;BME280_humidity;BME280_pressure;Samples;Min_cycle;Max_cycle;Signal;HPM_P1;HPM_P2
2022/03/08 00:00:27;;;;;;;11.88;7.07;;;1.80;99.90;;;;;;5056487;28;20441;-56
2022/03/08 00:02:54;;;;;;;11.48;6.78;;;1.80;99.90;;;;;;5063844;28;20055;-56
2022/03/08 00:05:20;;;;;;;13.27;7.30;;;1.80;99.90;;;;;;5055002;28;20039;-54
2022/03/08 00:07:47;;;;;;;11.20;6.32;;;1.70;99.90;;;;;;5060484;28;20047;-53
2022/03/08 00:10:13;;;;;;;11.30;6.97;;;1.70;99.90;;;;;;5056267;28;20150;-55
2022/03/08 00:12:39;;;;;;;15.85;7.85;;;1.70;99.90;;;;;;5066506;28;20051;-54
2022/03/08 00:15:13;;;;;;;13.35;7.88;;;1.70;99.90;;;;;;5061524;28;20053;-55
2022/03/08 00:17:39;;;;;;;12.40;7.38;;;1.60;99.90;;;;;;5063513;28;20162;-54
2022/03/08 00:20:06;;;;;;;12.82;6.80;;;1.60;99.90;;;;;;5063258;28;20507;-56
2022/03/08 00:22:34;;;;;;;10.85;6.75;;;1.60;99.90;;;;;;5057339;28;20043;-56
2022/03/08 00:25:03;;;;;;;11.98;7.13;;;1.60;99.90;;;;;;5059234;28;20040;-54
2022/03/08 00:27:29;;;;;;;12.35;7.13;;;1.60;99.90;;;;;;5058606;28;20487;-56
2022/03/08 00:29:54;;;;;;;12.90;7.65;;;1.50;99.90;;;;;;5060008;28;20203;-55
2022/03/08 00:32:20;;;;;;;11.95;7.72;;;1.50;99.90;;;;;;5075159;28;20515;-55
2022/03/08 00:34:46;;;;;;;11.43;6.80;;;1.60;99.90;;;;;;5057951;28;20044;-53
2022/03/08 00:37:12;;;;;;;13.60;7.50;;;1.60;99.90;;;;;;5055374;28;20058;-55
2022/03/08 00:39:38;;;;;;;11.13;6.65;;;1.60;99.90;;;;;;5063674;28;20169;-53
2022/03/08 00:42:04;;;;;;;9.13;6.50;;;1.60;99.90;;;;;;5058580;28;20456;-55
2022/03/08 00:44:29;;;;;;;10.45;5.97;;;1.60;99.90;;;;;;5062901;28;20126;-53
2022/03/08 00:46:55;;;;;;;11.85;7.38;;;1.60;99.90;;;;;;5057418;28;20036;-54
2022/03/08 00:49:21;;;;;;;10.95;6.07;;;1.60;99.90;;;;;;5054549;28;20047;-55
2022/03/08 00:51:47;;;;;;;11.13;6.40;;;1.70;99.90;;;;;;5043527;28;20080;-56
2022/03/08 00:54:13;;;;;;;9.55;6.55;;;1.60;99.90;;;;;;5061701;28;20039;-55
2022/03/08 00:56:38;;;;;;;10.38;6.25;;;1.70;99.90;;;;;;5057369;28;20191;-55
2022/03/08 00:59:04;;;;;;;12.63;7.30;;;1.60;99.90;;;;;;5077357;28;20044;-56
2022/03/08 01:01:30;;;;;;;11.25;6.35;;;1.60;99.90;;;;;;5053770;28;20044;-53
2022/03/08 01:03:56;;;;;;;14.95;6.90;;;1.60;99.90;;;;;;5041951;28;20051;-54
2022/03/08 01:06:22;;;;;;;10.52;6.28;;;1.60;99.90;;;;;;5073589;28;20048;-55
2022/03/08 01:08:48;;;;;;;12.32;7.28;;;1.60;99.90;;;;;;5043176;28;20233;-55
2022/03/08 01:11:13;;;;;;;11.80;6.70;;;1.50;99.90;;;;;;5035707;28;20548;-54
2022/03/08 01:13:39;;;;;;;11.23;6.60;;;1.60;99.90;;;;;;5053710;28;20036;-54
2022/03/08 01:16:05;;;;;;;11.18;6.30;;;1.50;99.90;;;;;;5060076;28;20119;-55
2022/03/08 01:18:31;;;;;;;10.32;6.25;;;1.50;99.90;;;;;;5074284;28;20407;-54
2022/03/08 01:20:58;;;;;;;10.70;6.43;;;1.40;99.90;;;;;;5058238;28;20047;-55
2022/03/08 01:23:24;;;;;;;12.48;6.63;;;1.40;99.90;;;;;;5067967;28;20536;-55
2022/03/08 01:25:49;;;;;;;9.73;6.60;;;1.40;99.90;;;;;;5056150;28;20071;-55
2022/03/08 01:28:15;;;;;;;10.63;6.97;;;1.30;99.90;;;;;;5059303;28;20392;-55
2022/03/08 01:30:41;;;;;;;12.75;7.00;;;1.40;99.90;;;;;;5074467;28;20076;-55
2022/03/08 01:33:06;;;;;;;12.88;6.13;;;1.40;99.90;;;;;;5074708;28;20040;-54
2022/03/08 01:35:32;;;;;;;10.15;5.93;;;1.40;99.90;;;;;;5077580;28;20109;-53
2022/03/08 01:37:58;;;;;;;9.77;6.20;;;1.30;99.90;;;;;;5077631;28;20035;-55
2022/03/08 01:40:24;;;;;;;9.38;6.50;;;1.30;99.90;;;;;;5028972;28;20032;-53
2022/03/08 01:42:51;;;;;;;12.65;6.68;;;1.30;99.90;;;;;;5054056;28;20119;-55
2022/03/08 01:45:20;;;;;;;13.35;7.78;;;1.20;99.90;;;;;;5052337;28;20490;-55
2022/03/08 01:47:46;;;;;;;11.25;6.65;;;1.20;99.90;;;;;;5065800;28;20194;-53
2022/03/08 01:50:12;;;;;;;10.38;6.50;;;1.20;99.90;;;;;;5054185;28;20044;-53
2022/03/08 01:52:39;;;;;;;12.38;6.72;;;1.20;99.90;;;;;;5065288;28;20083;-53
2022/03/08 01:55:06;;;;;;;9.05;6.03;;;1.20;99.90;;;;;;5071280;28;20535;-56
2022/03/08 01:57:33;;;;;;;9.30;6.35;;;1.20;99.90;;;;;;5060560;28;20062;-55
2022/03/08 01:59:58;;;;;;;11.50;6.97;;;1.10;99.90;;;;;;5059234;28;20044;-54
2022/03/08 02:02:24;;;;;;;11.13;6.78;;;1.10;99.90;;;;;;5067861;22;20032;-60
2022/03/08 02:04:50;;;;;;;11.13;6.93;;;1.10;99.90;;;;;;5090744;28;20040;-59
2022/03/08 02:07:17;;;;;;;12.02;6.80;;;1.10;99.90;;;;;;5091081;28;20042;-59
2022/03/08 02:09:42;;;;;;;12.95;6.35;;;1.10;99.90;;;;;;5090950;28;20374;-59
2022/03/08 02:12:10;;;;;;;13.18;7.43;;;1.10;99.90;;;;;;5096092;28;20046;-59
2022/03/08 02:14:36;;;;;;;12.18;7.43;;;1.10;99.90;;;;;;5074958;28;20042;-58
2022/03/08 02:17:03;;;;;;;11.48;7.03;;;1.10;99.90;;;;;;5044477;28;20052;-59
2022/03/08 02:19:28;;;;;;;13.38;7.40;;;1.10;99.90;;;;;;5073298;28;20637;-60
2022/03/08 02:21:55;;;;;;;10.35;6.35;;;1.00;99.90;;;;;;5059899;28;20123;-59
2022/03/08 02:24:21;;;;;;;14.93;9.38;;;1.00;99.90;;;;;;5038712;28;20490;-61
2022/03/08 02:26:47;;;;;;;11.40;6.20;;;1.00;99.90;;;;;;5079867;28;20036;-58
2022/03/08 02:29:14;;;;;;;10.75;7.40;;;1.00;99.90;;;;;;5073861;28;20043;-60
2022/03/08 02:31:40;;;;;;;9.68;6.72;;;1.00;99.90;;;;;;5077030;28;20510;-59
2022/03/08 02:34:05;;;;;;;11.73;6.78;;;1.00;99.90;;;;;;5074069;28;20046;-59
2022/03/08 02:36:31;;;;;;;13.40;6.97;;;0.90;99.90;;;;;;5074907;28;20108;-60
2022/03/08 02:38:57;;;;;;;12.00;6.45;;;0.90;99.90;;;;;;5074842;28;20028;-60
2022/03/08 02:41:23;;;;;;;13.98;7.60;;;1.00;99.90;;;;;;5093177;28;20093;-60
2022/03/08 02:43:48;;;;;;;14.43;7.93;;;0.90;99.90;;;;;;5074658;28;20090;-60
2022/03/08 02:46:14;;;;;;;12.15;6.53;;;1.00;99.90;;;;;;5085608;28;20409;-60
2022/03/08 02:48:40;;;;;;;11.45;6.60;;;1.00;99.90;;;;;;5071468;28;20040;-59
2022/03/08 02:51:06;;;;;;;11.55;6.88;;;1.10;99.90;;;;;;5055329;28;20032;-59
2022/03/08 02:53:32;;;;;;;13.48;7.20;;;1.00;99.90;;;;;;5058981;28;20040;-59
2022/03/08 02:55:58;;;;;;;12.95;7.18;;;1.00;99.90;;;;;;5074372;28;20044;-59
2022/03/08 02:58:24;;;;;;;11.40;6.95;;;1.00;99.90;;;;;;5074865;28;20570;-60
2022/03/08 03:00:50;;;;;;;11.45;6.47;;;1.00;99.90;;;;;;5078528;28;20041;-62
2022/03/08 03:03:16;;;;;;;13.05;7.68;;;1.00;99.90;;;;;;5082828;28;20413;-59
2022/03/08 03:05:41;;;;;;;9.82;6.65;;;1.00;99.90;;;;;;5092410;28;20047;-60
2022/03/08 03:08:08;;;;;;;12.82;7.30;;;1.00;99.90;;;;;;5057208;28;20054;-58
2022/03/08 03:10:33;;;;;;;12.00;7.82;;;1.00;99.90;;;;;;5075467;28;20308;-59
2022/03/08 03:12:59;;;;;;;12.48;7.30;;;0.90;99.90;;;;;;5074096;28;20442;-60
2022/03/08 03:15:27;;;;;;;14.05;7.75;;;0.90;99.90;;;;;;5094425;28;20050;-60
2022/03/08 03:17:53;;;;;;;15.32;8.18;;;0.90;99.90;;;;;;5069490;28;20133;-59
2022/03/08 03:20:21;;;;;;;12.18;8.18;;;0.80;99.90;;;;;;5053804;28;20047;-59
2022/03/08 03:22:48;;;;;;;14.05;7.93;;;0.80;99.90;;;;;;5053992;28;20040;-60
2022/03/08 03:25:15;;;;;;;13.23;8.43;;;0.80;99.90;;;;;;5053277;28;20052;-60
2022/03/08 03:27:41;;;;;;;18.00;8.23;;;0.80;99.90;;;;;;5053971;28;20417;-58
2022/03/08 03:30:10;;;;;;;14.18;7.85;;;0.80;99.90;;;;;;5055531;28;20045;-60
2022/03/08 03:32:36;;;;;;;13.00;7.45;;;0.80;99.90;;;;;;5096763;28;20046;-59
2022/03/08 03:35:03;;;;;;;14.93;7.88;;;0.80;99.90;;;;;;5093534;28;20043;-60
2022/03/08 03:37:29;;;;;;;13.55;8.00;;;0.70;99.90;;;;;;5102768;28;20066;-60
2022/03/08 03:39:54;;;;;;;14.05;7.53;;;0.70;99.90;;;;;;5063140;28;20126;-60
2022/03/08 03:42:20;;;;;;;13.32;7.65;;;0.60;99.90;;;;;;5091958;28;20050;-60
2022/03/08 03:44:46;;;;;;;11.68;7.93;;;0.70;99.90;;;;;;5066098;28;20486;-60
2022/03/08 03:47:12;;;;;;;14.48;7.90;;;0.70;99.90;;;;;;5064136;28;20083;-57
2022/03/08 03:49:37;;;;;;;13.80;8.10;;;0.70;99.90;;;;;;5056652;28;20085;-59
2022/03/08 03:52:04;;;;;;;16.05;10.07;;;0.60;99.90;;;;;;5062116;28;20062;-60
2022/03/08 03:54:29;;;;;;;13.80;9.00;;;0.60;99.90;;;;;;5036689;28;20043;-60
2022/03/08 03:56:55;;;;;;;14.52;8.93;;;0.60;99.90;;;;;;5076337;28;20028;-60
2022/03/08 04:01:52;;;;;;;17.85;9.38;;;0.60;99.90;;;;;;5029584;28;20041;-52
2022/03/08 04:04:18;;;;;;;16.75;9.25;;;0.60;99.90;;;;;;5014282;28;20056;-53
2022/03/08 04:06:44;;;;;;;16.35;8.57;;;0.50;99.90;;;;;;5011599;28;20437;-52
2022/03/08 04:09:10;;;;;;;17.92;9.60;;;0.50;99.90;;;;;;5003270;28;20040;-54
2022/03/08 04:11:48;;;;;;;15.32;9.00;;;0.60;99.90;;;;;;5017263;28;20128;-55
2022/03/08 04:14:15;;;;;;;16.88;8.90;;;0.60;99.90;;;;;;5019094;28;20833;-55
2022/03/08 04:16:41;;;;;;;17.95;9.60;;;0.60;99.90;;;;;;5008538;28;20036;-54
2022/03/08 04:19:07;;;;;;;14.27;8.88;;;0.60;99.90;;;;;;5015956;28;20041;-52
2022/03/08 04:21:32;;;;;;;13.52;9.00;;;0.50;99.90;;;;;;5003169;28;20128;-52
2022/03/08 04:23:59;;;;;;;14.27;8.90;;;0.50;99.90;;;;;;5023551;28;20147;-56
2022/03/08 04:26:25;;;;;;;15.82;9.18;;;0.40;99.90;;;;;;5005983;28;20033;-53
2022/03/08 04:28:51;;;;;;;15.93;9.68;;;0.30;99.90;;;;;;5017903;28;20037;-54
2022/03/08 04:31:17;;;;;;;15.63;9.93;;;0.30;99.90;;;;;;5010272;28;20537;-55
2022/03/08 04:33:44;;;;;;;18.38;10.35;;;0.40;99.90;;;;;;4987332;28;20102;-55
2022/03/08 04:36:10;;;;;;;17.50;10.70;;;0.40;99.90;;;;;;5022358;28;20049;-55
2022/03/08 04:38:35;;;;;;;15.68;9.20;;;0.30;99.90;;;;;;5002701;28;20041;-55
2022/03/08 04:41:02;;;;;;;15.95;10.30;;;0.30;99.90;;;;;;5021060;28;20110;-53
2022/03/08 04:43:29;;;;;;;17.98;10.68;;;0.30;99.90;;;;;;5026806;28;20080;-55
2022/03/08 04:45:55;;;;;;;17.23;9.75;;;0.30;99.90;;;;;;5018349;28;20163;-53
2022/03/08 04:48:20;;;;;;;19.30;10.85;;;0.30;99.90;;;;;;5021538;28;20713;-52
2022/03/08 04:50:46;;;;;;;16.90;10.18;;;0.30;99.90;;;;;;5023622;28;20041;-54
2022/03/08 04:53:12;;;;;;;17.42;11.07;;;0.30;99.90;;;;;;5036651;28;20041;-53
2022/03/08 04:55:37;;;;;;;16.80;10.75;;;0.30;99.90;;;;;;5033953;28;20094;-54
2022/03/08 04:58:03;;;;;;;17.15;10.65;;;0.30;99.90;;;;;;5016777;28;20156;-55
2022/03/08 05:00:29;;;;;;;17.25;10.10;;;0.30;99.90;;;;;;5025686;28;20032;-52
2022/03/08 05:02:55;;;;;;;18.67;9.10;;;0.30;99.90;;;;;;5022813;28;20033;-54
2022/03/08 05:05:20;;;;;;;17.15;10.80;;;0.30;99.90;;;;;;5022520;28;20124;-54
2022/03/08 05:07:46;;;;;;;19.38;10.30;;;0.30;99.90;;;;;;5041846;28;20041;-52
2022/03/08 05:10:13;;;;;;;21.90;12.55;;;0.30;99.90;;;;;;5033072;28;20045;-54
2022/03/08 05:12:39;;;;;;;19.42;11.15;;;0.30;99.90;;;;;;5042274;28;20044;-53
2022/03/08 05:15:06;;;;;;;17.35;11.20;;;0.30;99.90;;;;;;5020954;28;20053;-54
2022/03/08 05:17:32;;;;;;;21.95;11.23;;;0.30;99.90;;;;;;5021445;28;20482;-56
2022/03/08 05:19:58;;;;;;;19.65;12.45;;;0.30;99.90;;;;;;5019666;28;20033;-54
2022/03/08 05:22:24;;;;;;;18.13;10.63;;;0.30;99.90;;;;;;5013481;28;20071;-56
2022/03/08 05:24:49;;;;;;;21.25;12.00;;;0.40;99.90;;;;;;5033089;28;20119;-52
2022/03/08 05:27:15;;;;;;;18.88;11.80;;;0.30;99.90;;;;;;5019322;28;20036;-51
2022/03/08 05:29:41;;;;;;;20.13;12.18;;;0.30;99.90;;;;;;5014091;28;20488;-52
2022/03/08 05:32:08;;;;;;;20.25;11.98;;;0.30;99.90;;;;;;5009980;28;20051;-53
2022/03/08 05:34:33;;;;;;;20.10;12.05;;;0.30;99.90;;;;;;5037368;28;20124;-52
2022/03/08 05:36:59;;;;;;;19.30;12.85;;;0.30;99.90;;;;;;5024841;28;20575;-51
2022/03/08 05:39:25;;;;;;;18.75;12.63;;;0.30;99.90;;;;;;5038977;28;21109;-52
2022/03/08 05:41:51;;;;;;;22.00;12.88;;;0.30;99.90;;;;;;5035102;28;20047;-54
2022/03/08 05:44:17;;;;;;;18.83;11.75;;;0.30;99.90;;;;;;5036253;28;20046;-55
2022/03/08 05:46:43;;;;;;;19.73;11.85;;;0.30;99.90;;;;;;5016805;28;20048;-55
2022/03/08 05:49:09;;;;;;;20.17;12.68;;;0.20;99.90;;;;;;5041449;28;20049;-56
2022/03/08 05:51:35;;;;;;;18.77;11.85;;;0.20;99.90;;;;;;5016986;28;20063;-56
2022/03/08 05:54:01;;;;;;;17.25;11.00;;;0.20;99.90;;;;;;5021902;28;20084;-54
2022/03/08 05:56:27;;;;;;;19.15;12.63;;;0.20;99.90;;;;;;5017091;28;20130;-54
2022/03/08 05:58:53;;;;;;;20.92;11.45;;;0.30;99.90;;;;;;5025241;28;20503;-52
2022/03/08 06:01:19;;;;;;;18.63;11.82;;;0.30;99.90;;;;;;5018308;28;20495;-53
2022/03/08 06:03:44;;;;;;;19.65;12.85;;;0.30;99.90;;;;;;5020271;28;20049;-52
2022/03/08 06:06:11;;;;;;;20.02;12.25;;;0.30;99.90;;;;;;5015631;28;20658;-57
2022/03/08 06:08:37;;;;;;;19.52;11.05;;;0.30;99.90;;;;;;5028997;28;20416;-55
2022/03/08 06:11:03;;;;;;;24.35;13.25;;;0.30;99.90;;;;;;5010041;28;20064;-51
2022/03/08 06:13:29;;;;;;;20.58;12.75;;;0.30;99.90;;;;;;5035450;28;20029;-55
2022/03/08 06:15:55;;;;;;;20.88;12.73;;;0.40;99.90;;;;;;5043862;28;20037;-52
2022/03/08 06:18:21;;;;;;;22.52;13.68;;;0.30;99.90;;;;;;5020115;28;20048;-53
2022/03/08 06:20:47;;;;;;;20.38;12.75;;;0.30;99.90;;;;;;5023371;28;20041;-55
2022/03/08 06:23:13;;;;;;;20.92;13.07;;;0.30;99.90;;;;;;5037412;28;20196;-56
2022/03/08 06:25:39;;;;;;;20.33;12.02;;;0.30;99.90;;;;;;5024310;28;20040;-53
2022/03/08 06:28:04;;;;;;;20.27;12.88;;;0.30;99.90;;;;;;5021413;28;20045;-52
2022/03/08 06:30:30;;;;;;;22.67;13.20;;;0.30;99.90;;;;;;5037713;28;20114;-52
2022/03/08 06:32:56;;;;;;;22.38;13.77;;;0.40;99.90;;;;;;5006834;28;20041;-55
2022/03/08 06:35:21;;;;;;;23.13;13.07;;;0.40;99.90;;;;;;5037884;28;20145;-53
2022/03/08 06:37:47;;;;;;;23.42;12.77;;;0.40;99.90;;;;;;5021681;28;20044;-53
2022/03/08 06:40:13;;;;;;;20.25;13.32;;;0.40;99.90;;;;;;5010296;28;20037;-53
2022/03/08 06:42:39;;;;;;;26.40;13.75;;;0.40;99.90;;;;;;5036421;28;20491;-54
2022/03/08 06:45:06;;;;;;;21.23;13.45;;;0.40;99.90;;;;;;5020423;28;20049;-55
2022/03/08 06:47:32;;;;;;;24.80;12.75;;;0.50;99.90;;;;;;5023761;28;20065;-53
2022/03/08 06:49:58;;;;;;;22.60;12.68;;;0.50;99.90;;;;;;5025347;28;20041;-53
2022/03/08 06:52:24;;;;;;;22.20;12.70;;;0.60;99.90;;;;;;5023676;28;20063;-53
2022/03/08 06:54:50;;;;;;;25.38;13.82;;;0.70;99.90;;;;;;5005541;28;20044;-55
2022/03/08 06:57:16;;;;;;;21.98;12.73;;;1.00;99.90;;;;;;5028660;28;20040;-55
2022/03/08 06:59:42;;;;;;;19.40;12.63;;;1.30;99.90;;;;;;5037646;28;20045;-57
2022/03/08 07:02:08;;;;;;;21.15;12.20;;;1.70;99.90;;;;;;5008140;28;20056;-53
2022/03/08 07:04:34;;;;;;;19.15;12.45;;;1.90;99.90;;;;;;5018462;28;20044;-54
2022/03/08 07:07:00;;;;;;;20.67;12.73;;;2.20;99.90;;;;;;5017239;28;20112;-56
2022/03/08 07:09:27;;;;;;;21.05;11.70;;;2.70;99.90;;;;;;5030547;28;20124;-55
2022/03/08 07:11:53;;;;;;;19.17;11.40;;;3.00;99.90;;;;;;5017667;28;20033;-53
2022/03/08 07:14:19;;;;;;;19.50;12.43;;;3.10;99.70;;;;;;5002963;28;20048;-54
2022/03/08 07:16:47;;;;;;;20.65;12.57;;;3.00;99.20;;;;;;5041235;28;20040;-52
2022/03/08 07:19:13;;;;;;;18.90;11.48;;;2.80;99.10;;;;;;4990690;28;20071;-54
2022/03/08 07:21:40;;;;;;;19.73;11.98;;;2.50;99.30;;;;;;4999634;28;20048;-52
2022/03/08 07:24:06;;;;;;;19.65;12.18;;;2.40;99.70;;;;;;5017464;28;20041;-53
2022/03/08 07:26:32;;;;;;;18.70;12.30;;;2.20;99.90;;;;;;5025962;28;20025;-53
2022/03/08 07:28:58;;;;;;;15.18;10.48;;;2.20;99.90;;;;;;5022810;28;20380;-53
2022/03/08 07:31:23;;;;;;;18.00;11.90;;;2.10;99.90;;;;;;5039696;28;20484;-55
2022/03/08 07:33:49;;;;;;;19.48;11.25;;;2.10;99.90;;;;;;5025071;28;20698;-54
2022/03/08 07:36:15;;;;;;;17.02;11.32;;;2.10;99.90;;;;;;5015996;28;20101;-54
2022/03/08 07:38:41;;;;;;;16.85;10.98;;;2.10;99.90;;;;;;5025860;28;20119;-53
2022/03/08 07:41:06;;;;;;;18.70;10.82;;;2.10;99.90;;;;;;5020943;28;20071;-51
2022/03/08 07:43:36;;;;;;;18.52;10.93;;;2.20;99.90;;;;;;5037965;28;20144;-55
2022/03/08 07:46:04;;;;;;;18.83;11.63;;;2.20;99.90;;;;;;5013927;28;20045;-55
2022/03/08 07:48:29;;;;;;;19.00;11.02;;;2.20;99.90;;;;;;5018911;28;20116;-55
2022/03/08 07:50:55;;;;;;;20.17;11.70;;;2.30;99.90;;;;;;5004816;28;20182;-55
2022/03/08 07:53:21;;;;;;;16.95;11.13;;;2.30;99.90;;;;;;5037510;28;20044;-55
2022/03/08 07:55:47;;;;;;;18.02;12.23;;;2.40;99.90;;;;;;5015829;28;20044;-54
2022/03/08 07:58:14;;;;;;;16.60;10.73;;;2.50;99.90;;;;;;5022550;28;20062;-54
2022/03/08 08:00:41;;;;;;;14.57;9.50;;;2.60;99.90;;;;;;5024676;28;20047;-53
2022/03/08 08:03:07;;;;;;;16.42;11.60;;;2.70;99.90;;;;;;5014427;28;20128;-56
2022/03/08 08:05:34;;;;;;;15.82;10.68;;;2.80;99.90;;;;;;5020597;28;20049;-54
2022/03/08 08:08:02;;;;;;;16.92;11.30;;;2.90;99.90;;;;;;5021985;28;20037;-53
2022/03/08 08:10:28;;;;;;;15.63;10.10;;;3.10;99.90;;;;;;5041689;28;20073;-52
2022/03/08 08:12:53;;;;;;;14.65;9.75;;;3.20;99.90;;;;;;5020582;28;20068;-51
2022/03/08 08:15:19;;;;;;;13.95;9.35;;;3.40;99.90;;;;;;5007456;28;20045;-56
2022/03/08 08:17:45;;;;;;;16.73;10.98;;;3.50;99.90;;;;;;5001578;28;20563;-55
2022/03/08 08:20:11;;;;;;;14.77;9.65;;;3.70;99.90;;;;;;5023710;28;20051;-52
2022/03/08 08:22:37;;;;;;;16.25;10.55;;;3.80;99.70;;;;;;5015841;28;20175;-55
2022/03/08 08:25:04;;;;;;;15.45;9.68;;;4.00;99.60;;;;;;5022754;28;20752;-51
2022/03/08 08:27:30;;;;;;;17.88;10.55;;;4.10;99.20;;;;;;5022968;28;20048;-51
2022/03/08 08:29:55;;;;;;;13.55;10.02;;;4.20;99.10;;;;;;5040820;28;20423;-53
2022/03/08 08:32:21;;;;;;;16.00;10.80;;;4.30;99.00;;;;;;5020226;28;20522;-55
2022/03/08 08:34:47;;;;;;;14.25;9.30;;;4.50;98.50;;;;;;5000408;28;20079;-53
2022/03/08 08:37:13;;;;;;;16.90;10.23;;;4.60;98.30;;;;;;5033491;28;20030;-56
2022/03/08 08:39:39;;;;;;;13.20;9.55;;;4.70;97.80;;;;;;5020868;28;20037;-54
2022/03/08 08:42:05;;;;;;;12.77;8.65;;;4.80;97.40;;;;;;5003490;28;20499;-54
2022/03/08 08:44:31;;;;;;;13.13;9.15;;;5.00;97.60;;;;;;5018802;28;20041;-55
2022/03/08 08:46:56;;;;;;;12.02;8.32;;;5.10;97.10;;;;;;5023361;28;20510;-54
2022/03/08 08:49:25;;;;;;;11.95;8.05;;;5.20;96.00;;;;;;5000803;28;20338;-55
2022/03/08 08:51:51;;;;;;;14.82;8.35;;;5.30;96.00;;;;;;5010058;28;20041;-55
2022/03/08 08:54:17;;;;;;;11.07;8.20;;;5.40;96.00;;;;;;5032992;28;20404;-56
2022/03/08 08:56:42;;;;;;;10.88;8.18;;;5.50;95.50;;;;;;5005897;28;20048;-51
2022/03/08 08:59:08;;;;;;;10.32;7.88;;;5.60;95.20;;;;;;5018271;28;20187;-57
2022/03/08 09:01:34;;;;;;;12.77;7.90;;;5.80;95.10;;;;;;5014582;28;20048;-56
2022/03/08 09:04:00;;;;;;;9.82;7.50;;;5.90;95.20;;;;;;5007753;28;20383;-52
2022/03/08 09:06:26;;;;;;;9.68;7.40;;;6.10;94.60;;;;;;5017001;28;20044;-54
2022/03/08 09:08:52;;;;;;;12.35;7.65;;;6.20;94.60;;;;;;5018161;28;20044;-53
2022/03/08 09:11:18;;;;;;;10.43;7.75;;;6.30;94.40;;;;;;5020049;28;20536;-55
2022/03/08 09:13:43;;;;;;;10.55;7.10;;;6.40;93.60;;;;;;5014086;28;20045;-53
2022/03/08 09:16:09;;;;;;;10.25;7.60;;;6.50;93.40;;;;;;5015504;28;20219;-51
2022/03/08 09:18:35;;;;;;;9.85;7.70;;;6.60;90.70;;;;;;4998116;28;20476;-53
2022/03/08 09:21:02;;;;;;;10.05;6.90;;;6.60;90.20;;;;;;4997044;28;20050;-55
2022/03/08 09:23:28;;;;;;;12.32;7.72;;;6.60;89.40;;;;;;5000370;28;20059;-55
2022/03/08 09:25:54;;;;;;;12.05;8.00;;;6.60;89.00;;;;;;5012508;28;20393;-53
2022/03/08 09:28:19;;;;;;;9.52;6.95;;;6.80;90.50;;;;;;5005332;28;20045;-52
2022/03/08 09:30:46;;;;;;;9.65;7.30;;;6.90;90.20;;;;;;5034217;28;20029;-55
2022/03/08 09:33:12;;;;;;;10.70;7.03;;;7.00;89.80;;;;;;5035731;28;20037;-55
2022/03/08 09:35:38;;;;;;;9.77;6.78;;;7.10;88.40;;;;;;4997666;28;20094;-53
2022/03/08 09:38:04;;;;;;;10.55;6.68;;;7.30;87.20;;;;;;5019961;28;20124;-55
2022/03/08 09:40:31;;;;;;;10.07;6.85;;;7.40;87.70;;;;;;5016303;28;20098;-55
2022/03/08 09:42:57;;;;;;;10.65;6.05;;;7.40;84.20;;;;;;5014039;28;20484;-56
2022/03/08 09:45:22;;;;;;;9.82;5.88;;;7.40;82.10;;;;;;5012621;28;20127;-55
2022/03/08 09:47:49;;;;;;;11.02;7.20;;;7.50;81.70;;;;;;5026125;28;20124;-55
2022/03/08 09:50:15;;;;;;;8.88;6.45;;;7.60;82.20;;;;;;5016022;28;20045;-55
2022/03/08 09:52:42;;;;;;;8.00;5.90;;;7.70;79.40;;;;;;5019002;28;20044;-56
2022/03/08 09:55:13;;;;;;;9.40;6.75;;;7.60;78.60;;;;;;5034724;28;20059;-55
2022/03/08 09:57:39;;;;;;;12.88;6.47;;;7.60;76.10;;;;;;5021959;28;20040;-55
2022/03/08 10:00:06;;;;;;;7.43;5.90;;;7.80;78.00;;;;;;5004444;28;20051;-55
2022/03/08 10:02:45;;;;;;;10.75;6.88;;;7.90;77.80;;;;;;5012015;28;20226;-56
2022/03/08 10:05:11;;;;;;;9.70;6.75;;;8.00;77.30;;;;;;5020158;28;20041;-56
2022/03/08 10:07:37;;;;;;;8.45;6.32;;;8.10;77.00;;;;;;5018505;28;20195;-54
2022/03/08 10:10:03;;;;;;;8.93;6.45;;;8.20;75.30;;;;;;5017369;28;20061;-56
2022/03/08 10:12:29;;;;;;;11.65;6.60;;;8.40;76.40;;;;;;5005405;28;20050;-57
2022/03/08 10:14:55;;;;;;;8.23;6.15;;;8.50;76.80;;;;;;5011138;28;20425;-55
2022/03/08 10:17:37;;;;;;;10.18;5.72;;;8.60;74.40;;;;;;5013985;28;20053;-54
2022/03/08 10:20:05;;;;;;;10.63;5.88;;;8.70;73.80;;;;;;5018039;28;20053;-53
2022/03/08 10:22:34;;;;;;;7.57;5.40;;;8.80;74.00;;;;;;5023023;28;20037;-53
2022/03/08 10:25:15;;;;;;;10.15;6.38;;;8.90;71.80;;;;;;5007637;28;20092;-52
2022/03/08 10:27:54;;;;;;;9.07;6.80;;;9.00;73.90;;;;;;5018707;28;20084;-55
2022/03/08 10:30:43;;;;;;;8.88;6.07;;;9.20;74.70;;;;;;5019961;28;20488;-52
2022/03/08 10:33:19;;;;;;;8.00;6.07;;;9.50;74.10;;;;;;5012213;28;20484;-52
2022/03/08 10:35:46;;;;;;;7.88;5.85;;;9.50;70.60;;;;;;5001035;28;20037;-54
2022/03/08 10:38:12;;;;;;;7.82;5.60;;;9.50;69.50;;;;;;5005372;28;20044;-54
2022/03/08 10:40:40;;;;;;;7.10;5.75;;;9.60;68.10;;;;;;5021756;28;20082;-56
2022/03/08 10:43:08;;;;;;;7.15;5.68;;;9.60;66.80;;;;;;5021054;28;20042;-57
2022/03/08 10:45:36;;;;;;;7.93;5.75;;;9.70;68.00;;;;;;5021238;28;20044;-57
2022/03/08 10:48:09;;;;;;;7.72;6.05;;;9.90;68.30;;;;;;5044014;28;20071;-53
2022/03/08 10:50:37;;;;;;;6.75;5.13;;;9.90;65.00;;;;;;5007322;28;20080;-54
2022/03/08 10:53:05;;;;;;;7.82;5.15;;;9.80;61.80;;;;;;5039289;28;20456;-55
2022/03/08 10:55:49;;;;;;;8.52;5.40;;;9.90;63.70;;;;;;5017901;28;20394;-55
2022/03/08 10:58:16;;;;;;;6.95;5.20;;;9.80;59.80;;;;;;5012002;28;20105;-55
2022/03/08 11:00:51;;;;;;;6.72;5.32;;;9.90;60.50;;;;;;5043184;28;20052;-55
2022/03/08 11:03:20;;;;;;;8.88;5.88;;;10.00;62.90;;;;;;5030960;28;21280;-55
2022/03/08 11:05:49;;;;;;;7.25;5.47;;;10.20;64.10;;;;;;5023963;28;20506;-55
2022/03/08 11:08:15;;;;;;;8.63;5.22;;;10.30;62.10;;;;;;5003064;28;20049;-54
2022/03/08 11:10:42;;;;;;;7.45;5.82;;;10.30;62.10;;;;;;5022707;28;20056;-57
2022/03/08 11:13:09;;;;;;;6.75;5.28;;;10.20;61.00;;;;;;5022334;28;20041;-55
2022/03/08 11:15:38;;;;;;;9.65;5.32;;;10.30;61.40;;;;;;5018970;28;20311;-51
2022/03/08 11:18:07;;;;;;;7.35;5.50;;;10.40;60.90;;;;;;5021766;28;20129;-55
2022/03/08 11:20:34;;;;;;;8.48;5.22;;;10.60;62.90;;;;;;5019851;28;20121;-55
2022/03/08 11:23:00;;;;;;;7.45;5.90;;;10.70;62.40;;;;;;5007742;28;20044;-52
2022/03/08 11:25:33;;;;;;;8.10;5.85;;;10.90;61.60;;;;;;5009171;28;20042;-55
2022/03/08 11:28:01;;;;;;;8.07;5.40;;;11.00;62.20;;;;;;5005315;28;20045;-52
2022/03/08 11:30:33;;;;;;;6.93;4.88;;;11.10;60.00;;;;;;5023091;28;20049;-55
2022/03/08 11:33:14;;;;;;;7.55;5.20;;;11.10;60.10;;;;;;5017371;28;20531;-55
2022/03/08 11:35:58;;;;;;;6.22;4.38;;;11.00;58.70;;;;;;5026681;28;20040;-56
2022/03/08 11:38:24;;;;;;;6.95;5.43;;;11.10;56.40;;;;;;5018716;28;20037;-54
2022/03/08 11:40:56;;;;;;;7.28;4.57;;;11.00;57.50;;;;;;5023158;28;20044;-56
2022/03/08 11:43:38;;;;;;;7.57;4.85;;;11.10;59.00;;;;;;5023027;28;20098;-54
2022/03/08 11:46:18;;;;;;;7.25;5.40;;;11.20;57.00;;;;;;5036251;28;20598;-54
2022/03/08 11:48:58;;;;;;;7.93;5.45;;;11.10;58.10;;;;;;5026385;28;20049;-58
2022/03/08 11:51:26;;;;;;;6.93;4.97;;;11.30;57.70;;;;;;5018432;28;20423;-56
2022/03/08 11:54:05;;;;;;;7.20;5.05;;;11.30;56.60;;;;;;5023483;28;20077;-57
2022/03/08 11:56:54;;;;;;;8.73;5.40;;;11.20;55.80;;;;;;5021237;28;20138;-58
2022/03/08 11:59:20;;;;;;;5.97;4.80;;;11.10;56.40;;;;;;5019476;28;20056;-55
2022/03/08 12:01:47;;;;;;;6.35;4.78;;;11.10;56.70;;;;;;5034027;28;20037;-55
2022/03/08 12:04:16;;;;;;;7.00;4.75;;;11.20;57.20;;;;;;5041213;28;20052;-58
2022/03/08 12:06:54;;;;;;;7.25;4.25;;;11.20;56.90;;;;;;5026596;28;20395;-56
2022/03/08 12:09:21;;;;;;;5.65;4.25;;;11.30;55.80;;;;;;5018008;28;20041;-53
2022/03/08 12:12:04;;;;;;;6.13;4.65;;;11.30;56.00;;;;;;5023692;28;20102;-56
2022/03/08 12:14:38;;;;;;;7.53;4.78;;;11.50;56.00;;;;;;5001902;28;20033;-53
2022/03/08 12:17:08;;;;;;;7.03;4.72;;;11.60;57.40;;;;;;5004585;28;20119;-56
2022/03/08 12:19:37;;;;;;;6.50;5.15;;;11.50;54.50;;;;;;5004197;28;20066;-56
2022/03/08 12:22:12;;;;;;;6.10;5.03;;;11.30;55.50;;;;;;5018345;28;20130;-53
2022/03/08 12:24:51;;;;;;;6.80;4.43;;;11.40;55.00;;;;;;5027485;28;20048;-53
2022/03/08 12:27:18;;;;;;;6.47;4.72;;;11.50;54.90;;;;;;5033203;28;20045;-55
2022/03/08 12:30:05;;;;;;;6.60;4.80;;;11.60;55.60;;;;;;5022071;28;20120;-56
2022/03/08 12:32:39;;;;;;;7.60;4.72;;;11.80;54.70;;;;;;5021815;28;20041;-53
2022/03/08 12:35:19;;;;;;;6.40;4.38;;;11.90;54.20;;;;;;5016716;28;20060;-53
2022/03/08 12:37:50;;;;;;;7.25;4.75;;;12.00;55.00;;;;;;5023411;28;20522;-53
2022/03/08 12:40:19;;;;;;;6.70;4.38;;;12.00;53.40;;;;;;5037454;28;20100;-54
2022/03/08 12:42:55;;;;;;;6.60;4.47;;;11.70;52.20;;;;;;5025585;28;20045;-53
2022/03/08 12:45:26;;;;;;;5.20;4.50;;;11.90;54.60;;;;;;5022693;28;20045;-56
2022/03/08 12:47:59;;;;;;;6.78;4.38;;;12.00;54.80;;;;;;5019995;28;20071;-57